createdAt,value
2023-03-29T00:00:39.159Z,101615.69
2023-03-29T00:03:45.697Z,101610.50
2023-03-29T00:06:50.594Z,101607.03
2023-03-29T00:09:54.726Z,101604.41
2023-03-29T00:12:59.856Z,101594.88
2023-03-29T00:16:04.703Z,101590.56
2023-03-29T00:19:09.654Z,101582.78
2023-03-29T00:22:14.926Z,101574.09
2023-03-29T00:25:19.382Z,101574.91
2023-03-29T00:28:24.452Z,101569.72
2023-03-29T00:31:28.908Z,101571.44
2023-03-29T00:34:36.083Z,101570.53
2023-03-29T00:37:41.334Z,101562.72
2023-03-29T00:40:47.320Z,101560.09
2023-03-29T00:44:02.093Z,101560.06
2023-03-29T00:47:06.632Z,101557.47
2023-03-29T00:50:30.868Z,101547.06
2023-03-29T00:53:46.824Z,101542.78
2023-03-29T00:56:51.681Z,101539.34
2023-03-29T00:59:57.764Z,101535.03
2023-03-29T01:03:13.689Z,101522.94
2023-03-29T01:06:22.771Z,101522.88
2023-03-29T01:09:30.362Z,101513.41
2023-03-29T01:12:46.626Z,101505.56
2023-03-29T01:15:51.279Z,101505.63
2023-03-29T01:19:02.275Z,101492.63
2023-03-29T01:22:18.421Z,101484.00
2023-03-29T01:25:55.643Z,101486.69
2023-03-29T01:29:09.917Z,101476.25
2023-03-29T01:32:26.040Z,101465.81
2023-03-29T01:36:13.911Z,101456.31
2023-03-29T01:39:19.003Z,101454.63
2023-03-29T01:42:33.420Z,101467.59
2023-03-29T01:46:16.629Z,101449.53
2023-03-29T01:49:43.932Z,101445.25
2023-03-29T01:53:13.201Z,101432.34
2023-03-29T01:56:22.976Z,101426.34
2023-03-29T01:59:32.242Z,101423.91
2023-03-29T02:02:41.699Z,101416.97
2023-03-29T02:05:46.696Z,101408.28
2023-03-29T02:08:53.059Z,101408.19
2023-03-29T02:12:01.295Z,101412.50
2023-03-29T02:15:13.262Z,101402.94
2023-03-29T02:18:19.811Z,101412.44
2023-03-29T02:21:42.557Z,101403.72
2023-03-29T02:24:50.071Z,101397.66
2023-03-29T02:27:54.772Z,101396.00
2023-03-29T02:31:30.681Z,101391.66
2023-03-29T02:34:41.748Z,101384.75
2023-03-29T02:37:49.589Z,101381.22
2023-03-29T02:40:56.993Z,101370.75
2023-03-29T02:44:04.304Z,101376.81
2023-03-29T02:47:25.072Z,101368.19
2023-03-29T02:50:37.477Z,101368.19
2023-03-29T02:54:13.478Z,101368.22
2023-03-29T02:57:18.273Z,101362.06
2023-03-29T03:00:24.057Z,101357.75
2023-03-29T03:03:29.141Z,101357.75
2023-03-29T03:06:33.869Z,101353.38
2023-03-29T03:09:37.789Z,101344.75
2023-03-29T03:12:42.170Z,101335.25
2023-03-29T03:15:49.163Z,101333.53
2023-03-29T03:18:55.521Z,101318.03
2023-03-29T03:21:59.915Z,101316.22
2023-03-29T03:25:04.885Z,101315.31
2023-03-29T03:28:09.276Z,101310.06
2023-03-29T03:31:15.899Z,101305.03
2023-03-29T03:34:19.954Z,101294.63
2023-03-29T03:37:24.840Z,101294.66
2023-03-29T03:40:29.242Z,101299.81
2023-03-29T03:43:34.476Z,101304.09
2023-03-29T03:46:38.733Z,101298.03
2023-03-29T03:49:43.513Z,101295.47
2023-03-29T03:52:47.637Z,101287.66
2023-03-29T03:55:55.829Z,101281.59
2023-03-29T03:59:00.154Z,101285.03
2023-03-29T04:02:05.644Z,101284.13
2023-03-29T04:05:10.133Z,101278.81
2023-03-29T04:08:15.099Z,101276.22
2023-03-29T04:11:19.516Z,101270.09
2023-03-29T04:14:25.996Z,101260.47
2023-03-29T04:17:30.490Z,101255.31
2023-03-29T04:20:35.211Z,101264.72
2023-03-29T04:23:39.661Z,101260.38
2023-03-29T04:26:44.386Z,101245.66
2023-03-29T04:29:48.912Z,101239.63
2023-03-29T04:32:53.231Z,101227.50
2023-03-29T04:35:57.504Z,101226.69
2023-03-29T04:39:02.023Z,101218.03
2023-03-29T04:42:06.663Z,101217.19
2023-03-29T04:45:13.997Z,101213.66
2023-03-29T04:48:18.374Z,101211.94
2023-03-29T04:51:24.328Z,101200.69
2023-03-29T04:54:28.584Z,101199.81
2023-03-29T04:57:33.433Z,101203.25
2023-03-29T05:00:37.879Z,101183.31
2023-03-29T05:03:42.241Z,101185.84
2023-03-29T05:06:47.202Z,101182.47
2023-03-29T05:09:51.991Z,101178.09
2023-03-29T05:12:56.928Z,101173.69
2023-03-29T05:16:02.522Z,101178.91
2023-03-29T05:19:09.149Z,101168.44
2023-03-29T05:22:14.272Z,101165.03
2023-03-29T05:25:19.600Z,101167.59
2023-03-29T05:28:23.787Z,101168.44
2023-03-29T05:31:29.153Z,101171.03
2023-03-29T05:34:33.598Z,101165.03
2023-03-29T05:37:38.992Z,101160.69
2023-03-29T05:40:43.214Z,101155.56
2023-03-29T05:43:47.319Z,101145.09
2023-03-29T05:46:52.629Z,101149.41
2023-03-29T05:49:57.319Z,101161.44
2023-03-29T05:53:01.636Z,101164.84
2023-03-29T05:56:08.696Z,101169.16
2023-03-29T05:59:13.877Z,101163.84
2023-03-29T06:02:18.730Z,101164.59
2023-03-29T06:05:22.864Z,101168.03
2023-03-29T06:08:28.523Z,101164.47
2023-03-29T06:11:34.908Z,101166.09
2023-03-29T06:14:39.037Z,101166.00
2023-03-29T06:17:47.242Z,101168.50
2023-03-29T06:20:53.638Z,101161.53
2023-03-29T06:23:58.654Z,101164.03
2023-03-29T06:27:03.056Z,101162.31
2023-03-29T06:30:08.057Z,101166.50
2023-03-29T06:33:14.185Z,101165.56
2023-03-29T06:36:20.097Z,101162.84
2023-03-29T06:39:26.295Z,101168.81
2023-03-29T06:42:30.732Z,101165.22
2023-03-29T06:45:37.817Z,101166.88
2023-03-29T06:48:42.151Z,101172.03
2023-03-29T06:51:46.922Z,101165.81
2023-03-29T06:54:51.589Z,101168.25
2023-03-29T06:57:56.095Z,101169.88
2023-03-29T07:01:04.877Z,101165.50
2023-03-29T07:04:10.021Z,101164.56
2023-03-29T07:07:20.194Z,101171.41
2023-03-29T07:10:32.240Z,101160.97
2023-03-29T07:13:36.858Z,101162.53
2023-03-29T07:16:41.059Z,101156.25
2023-03-29T07:19:45.689Z,101148.16
2023-03-29T07:22:51.218Z,101141.19
2023-03-29T07:25:55.831Z,101141.00
2023-03-29T07:29:00.997Z,101140.84
2023-03-29T07:32:05.645Z,101140.69
2023-03-29T07:35:12.137Z,101145.91
2023-03-29T07:38:16.312Z,101149.41
2023-03-29T07:41:21.146Z,101148.56
2023-03-29T07:44:27.064Z,101143.31
2023-03-29T07:47:31.868Z,101146.75
2023-03-29T07:50:36.363Z,101149.38
2023-03-29T07:53:40.543Z,101150.13
2023-03-29T07:56:44.989Z,101159.72
2023-03-29T07:59:49.625Z,101160.50
2023-03-29T08:02:54.903Z,101155.19
2023-03-29T08:06:02.990Z,101150.94
2023-03-29T08:09:07.142Z,101159.56
2023-03-29T08:12:11.672Z,101168.19
2023-03-29T08:15:17.011Z,101151.00
2023-03-29T08:18:21.778Z,101146.66
2023-03-29T08:21:26.519Z,101138.72
2023-03-29T08:24:31.134Z,101143.84
2023-03-29T08:27:35.730Z,101149.78
2023-03-29T08:30:39.934Z,101155.81
2023-03-29T08:33:44.457Z,101149.66
2023-03-29T08:36:49.056Z,101145.16
2023-03-29T08:39:53.545Z,101142.38
2023-03-29T08:43:19.642Z,101147.56
2023-03-29T08:47:07.900Z,101142.09
2023-03-29T08:50:13.886Z,101147.97
2023-03-29T08:53:31.846Z,101141.06
2023-03-29T08:56:39.387Z,101137.53
2023-03-29T08:59:45.582Z,101133.84
2023-03-29T09:02:53.842Z,101132.81
2023-03-29T09:06:10.904Z,101131.00
2023-03-29T09:09:20.773Z,101128.25
2023-03-29T09:12:52.672Z,101127.38
2023-03-29T09:16:09.909Z,101138.44
2023-03-29T09:19:47.111Z,101133.22
2023-03-29T09:23:46.970Z,101132.38
2023-03-29T09:27:00.598Z,101122.78
2023-03-29T09:30:17.117Z,101120.97
2023-03-29T09:33:42.636Z,101111.28
2023-03-29T09:37:01.706Z,101111.28
2023-03-29T09:40:31.078Z,101110.25
2023-03-29T09:43:41.630Z,101097.03
2023-03-29T09:46:58.385Z,101099.38
2023-03-29T09:50:31.466Z,101088.69
2023-03-29T09:53:37.241Z,101080.72
2023-03-29T09:56:41.964Z,101085.91
2023-03-29T09:59:49.515Z,101084.91
2023-03-29T10:02:57.179Z,101074.38
2023-03-29T10:06:06.418Z,101075.88
2023-03-29T10:09:21.926Z,101072.25
2023-03-29T10:12:26.107Z,101074.94
2023-03-29T10:15:31.589Z,101074.28
2023-03-29T10:18:43.857Z,101078.44
2023-03-29T10:21:53.857Z,101081.50
2023-03-29T10:24:58.022Z,101079.28
2023-03-29T10:28:16.126Z,101084.72
2023-03-29T10:31:22.532Z,101092.44
2023-03-29T10:34:28.161Z,101091.44
2023-03-29T10:37:32.291Z,101098.78
2023-03-29T10:40:48.042Z,101094.22
2023-03-29T10:43:53.747Z,101107.22
2023-03-29T10:47:19.482Z,101109.78
2023-03-29T10:50:26.673Z,101108.84
2023-03-29T10:53:34.884Z,101093.03
2023-03-29T10:56:50.787Z,101100.75
2023-03-29T11:00:08.275Z,101097.19
2023-03-29T11:03:55.596Z,101089.44
2023-03-29T11:07:18.033Z,101076.31
2023-03-29T11:10:48.161Z,101081.44
2023-03-29T11:14:22.501Z,101078.59
2023-03-29T11:17:50.873Z,101078.31
2023-03-29T11:21:45.762Z,101087.97
2023-03-29T11:25:08.376Z,101085.59
2023-03-29T11:28:41.387Z,101077.88
2023-03-29T11:32:13.238Z,101075.66
2023-03-29T11:35:36.864Z,101074.34
2023-03-29T11:39:00.686Z,101090.69
2023-03-29T11:42:17.779Z,101095.75
2023-03-29T11:45:57.840Z,101102.09
2023-03-29T11:49:44.396Z,101107.50
2023-03-29T11:52:59.111Z,101111.75
2023-03-29T11:56:19.263Z,101117.69
2023-03-29T11:59:36.319Z,101114.97
2023-03-29T12:03:14.825Z,101115.66
2023-03-29T12:06:37.815Z,101120.88
2023-03-29T12:09:59.995Z,101124.19
2023-03-29T12:13:38.543Z,101126.75
2023-03-29T12:17:01.274Z,101124.13
2023-03-29T12:20:28.374Z,101132.81
2023-03-29T12:23:33.493Z,101143.47
2023-03-29T12:26:50.499Z,101136.59
2023-03-29T12:30:34.228Z,101136.47
2023-03-29T12:34:19.315Z,101133.75
2023-03-29T12:38:04.204Z,101125.06
2023-03-29T12:41:19.675Z,101125.88
2023-03-29T12:44:24.542Z,101130.06
2023-03-29T12:47:39.683Z,101125.53
2023-03-29T12:51:07.767Z,101128.72
2023-03-29T12:54:21.653Z,101127.59
2023-03-29T12:57:38.085Z,101119.59
2023-03-29T13:00:45.296Z,101122.91
2023-03-29T13:03:55.295Z,101115.88
2023-03-29T13:07:05.884Z,101105.94
2023-03-29T13:10:30.823Z,101107.50
2023-03-29T13:13:38.304Z,101105.59
2023-03-29T13:16:43.765Z,101093.31
2023-03-29T13:20:18.957Z,101100.34
2023-03-29T13:24:06.745Z,101086.69
2023-03-29T13:27:37.353Z,101087.44
2023-03-29T13:31:06.284Z,101084.06
2023-03-29T13:34:39.042Z,101082.94
2023-03-29T13:38:21.616Z,101077.72
2023-03-29T13:41:38.131Z,101079.53
2023-03-29T13:44:46.089Z,101076.63
2023-03-29T13:48:04.950Z,101066.16
2023-03-29T13:51:21.773Z,101067.88
2023-03-29T13:54:37.391Z,101065.31
2023-03-29T13:57:52.620Z,101059.19
2023-03-29T14:01:29.392Z,101058.13
2023-03-29T14:04:43.529Z,101050.88
2023-03-29T14:07:51.157Z,101057.09
2023-03-29T14:10:56.290Z,101048.94
2023-03-29T14:14:08.507Z,101057.50
2023-03-29T14:17:22.712Z,101066.25
2023-03-29T14:20:27.630Z,101057.63
2023-03-29T14:23:37.878Z,101056.78
2023-03-29T14:26:47.050Z,101058.63
2023-03-29T14:29:52.371Z,101060.06
2023-03-29T14:32:57.066Z,101071.03
2023-03-29T14:36:05.018Z,101072.16
2023-03-29T14:39:21.892Z,101070.13
2023-03-29T14:42:29.138Z,101064.41
2023-03-29T14:45:33.634Z,101069.66
2023-03-29T14:48:38.979Z,101078.19
2023-03-29T14:51:47.846Z,101076.25
2023-03-29T14:54:58.279Z,101070.88
2023-03-29T14:58:02.674Z,101069.09
2023-03-29T15:01:19.934Z,101059.50
2023-03-29T15:04:31.600Z,101056.16
2023-03-29T15:07:37.174Z,101052.63
2023-03-29T15:10:44.750Z,101047.59
2023-03-29T15:13:56.755Z,101049.16
2023-03-29T15:17:43.070Z,101044.97
2023-03-29T15:20:54.891Z,101040.44
2023-03-29T15:24:02.100Z,101033.50
2023-03-29T15:27:18.864Z,101028.19
2023-03-29T15:30:39.273Z,101020.22
2023-03-29T15:33:44.079Z,101022.66
2023-03-29T15:36:48.708Z,101020.13
2023-03-29T15:39:53.100Z,101013.16
2023-03-29T15:42:57.242Z,101016.44
2023-03-29T15:46:01.600Z,101005.13
2023-03-29T15:49:06.021Z,101002.31
2023-03-29T15:52:10.530Z,100995.47
2023-03-29T15:55:15.060Z,100986.59
2023-03-29T15:58:30.601Z,100972.59
2023-03-29T16:01:37.767Z,100969.22
2023-03-29T16:04:42.936Z,100962.31
2023-03-29T16:07:47.521Z,100960.53
2023-03-29T16:10:51.808Z,100961.25
2023-03-29T16:13:57.210Z,100953.47
2023-03-29T16:17:03.241Z,100960.41
2023-03-29T16:20:10.151Z,100973.50
2023-03-29T16:23:14.597Z,100965.53
2023-03-29T16:26:19.016Z,100958.69
2023-03-29T16:29:25.273Z,100964.88
2023-03-29T16:32:29.580Z,100964.06
2023-03-29T16:35:38.192Z,100956.88
2023-03-29T16:38:42.461Z,100952.97
2023-03-29T16:41:48.951Z,100955.66
2023-03-29T16:44:54.699Z,100955.34
2023-03-29T16:47:59.366Z,100947.84
2023-03-29T16:51:04.427Z,100949.56
2023-03-29T16:54:09.265Z,100946.19
2023-03-29T16:57:13.827Z,100945.34
2023-03-29T17:00:20.197Z,100957.41
2023-03-29T17:03:24.798Z,100944.44
2023-03-29T17:06:29.842Z,100960.88
2023-03-29T17:09:34.186Z,100961.66
2023-03-29T17:12:39.515Z,100958.31
2023-03-29T17:15:44.239Z,100944.97
2023-03-29T17:18:48.914Z,100938.03
2023-03-29T17:21:52.946Z,100941.25
2023-03-29T17:24:57.523Z,100940.41
2023-03-29T17:28:01.736Z,100937.91
2023-03-29T17:31:07.811Z,100930.16
2023-03-29T17:34:13.002Z,100928.59
2023-03-29T17:37:17.594Z,100928.66
2023-03-29T17:40:22.474Z,100918.47
2023-03-29T17:43:27.187Z,100912.75
2023-03-29T17:46:32.283Z,100919.50
2023-03-29T17:49:37.151Z,100920.16
2023-03-29T17:52:41.447Z,100921.41
2023-03-29T17:55:45.847Z,100918.00
2023-03-29T17:58:50.689Z,100926.88
2023-03-29T18:01:54.957Z,100922.44
2023-03-29T18:05:02.531Z,100919.69
2023-03-29T18:08:08.683Z,100907.59
2023-03-29T18:11:22.359Z,100919.38
2023-03-29T18:14:26.655Z,100904.84
2023-03-29T18:17:31.471Z,100903.72
2023-03-29T18:20:35.563Z,100886.28
2023-03-29T18:23:42.157Z,100885.56
2023-03-29T18:26:46.584Z,100890.94
2023-03-29T18:29:51.041Z,100884.72
2023-03-29T18:32:55.575Z,100891.44
2023-03-29T18:36:01.680Z,100904.84
2023-03-29T18:39:06.610Z,100907.66
2023-03-29T18:42:12.238Z,100902.47
2023-03-29T18:45:18.006Z,100905.81
2023-03-29T18:48:22.312Z,100905.09
2023-03-29T18:51:28.070Z,100904.91
2023-03-29T18:54:32.515Z,100903.97
2023-03-29T18:57:37.148Z,100909.09
2023-03-29T19:00:43.378Z,100912.75
2023-03-29T19:03:48.208Z,100911.03
2023-03-29T19:06:53.682Z,100909.34
2023-03-29T19:09:57.772Z,100916.41
2023-03-29T19:13:01.936Z,100916.09
2023-03-29T19:16:07.394Z,100915.91
2023-03-29T19:19:12.824Z,100912.47
2023-03-29T19:22:17.621Z,100906.28
2023-03-29T19:25:22.244Z,100904.38
2023-03-29T19:28:27.464Z,100894.72
2023-03-29T19:31:33.494Z,100900.72
2023-03-29T19:34:38.084Z,100906.84
2023-03-29T19:37:42.817Z,100899.78
2023-03-29T19:40:49.952Z,100890.09
2023-03-29T19:43:54.618Z,100901.22
2023-03-29T19:47:00.579Z,100903.91
2023-03-29T19:50:06.997Z,100893.38
2023-03-29T19:53:12.803Z,100894.97
2023-03-29T19:56:17.835Z,100890.63
2023-03-29T19:59:22.741Z,100890.63
2023-03-29T20:02:27.428Z,100885.25
2023-03-29T20:05:31.978Z,100876.31
2023-03-29T20:08:38.714Z,100863.19
2023-03-29T20:11:46.873Z,100850.94
2023-03-29T20:14:51.595Z,100846.69
2023-03-29T20:17:59.441Z,100845.00
2023-03-29T20:21:06.712Z,100835.13
2023-03-29T20:24:11.579Z,100829.91
2023-03-29T20:27:15.952Z,100841.47
2023-03-29T20:30:20.557Z,100833.53
2023-03-29T20:33:24.877Z,100830.13
2023-03-29T20:36:30.664Z,100821.53
2023-03-29T20:39:35.676Z,100817.16
2023-03-29T20:42:40.080Z,100802.34
2023-03-29T20:45:53.381Z,100804.00
2023-03-29T20:48:58.201Z,100798.06
2023-03-29T20:52:08.363Z,100794.41
2023-03-29T20:55:13.252Z,100801.38
2023-03-29T20:58:17.804Z,100795.06
2023-03-29T21:01:22.282Z,100792.44
2023-03-29T21:04:27.937Z,100799.44
2023-03-29T21:07:32.783Z,100793.44
2023-03-29T21:10:37.232Z,100796.84
2023-03-29T21:13:42.996Z,100789.94
2023-03-29T21:16:50.763Z,100787.19
2023-03-29T21:19:55.356Z,100785.56
2023-03-29T21:23:00.193Z,100779.47
2023-03-29T21:26:07.325Z,100773.31
2023-03-29T21:29:11.939Z,100775.00
2023-03-29T21:32:16.098Z,100778.41
2023-03-29T21:35:20.611Z,100780.16
2023-03-29T21:38:25.240Z,100786.28
2023-03-29T21:41:29.589Z,100782.09
2023-03-29T21:44:34.556Z,100779.66
2023-03-29T21:47:39.274Z,100778.81
2023-03-29T21:50:44.693Z,100763.94
2023-03-29T21:53:49.125Z,100775.44
2023-03-29T21:56:53.213Z,100767.78
2023-03-29T21:59:57.379Z,100780.03
2023-03-29T22:03:01.614Z,100777.41
2023-03-29T22:06:09.474Z,100767.69
2023-03-29T22:09:14.099Z,100754.88
2023-03-29T22:12:18.788Z,100761.81
2023-03-29T22:15:22.905Z,100749.63
2023-03-29T22:18:30.171Z,100743.69
2023-03-29T22:21:37.294Z,100741.25
2023-03-29T22:24:42.270Z,100733.59
2023-03-29T22:27:48.909Z,100722.41
2023-03-29T22:30:53.235Z,100716.22
2023-03-29T22:33:58.601Z,100715.47
2023-03-29T22:37:03.716Z,100707.41
2023-03-29T22:40:10.167Z,100715.47
2023-03-29T22:43:14.346Z,100703.81
2023-03-29T22:46:19.746Z,100691.56
2023-03-29T22:49:24.546Z,100685.75
2023-03-29T22:52:28.763Z,100692.69
2023-03-29T22:55:33.077Z,100688.22
2023-03-29T22:58:37.769Z,100685.63
2023-03-29T23:01:42.200Z,100675.91
2023-03-29T23:04:47.529Z,100667.63
2023-03-29T23:07:51.920Z,100662.66
2023-03-29T23:10:56.494Z,100663.72
2023-03-29T23:14:03.914Z,100652.31
2023-03-29T23:17:10.137Z,100644.03
2023-03-29T23:20:14.651Z,100634.41
2023-03-29T23:23:21.751Z,100619.53
2023-03-29T23:26:27.763Z,100613.66
2023-03-29T23:29:31.685Z,100617.50
2023-03-29T23:32:36.259Z,100618.34
2023-03-29T23:35:40.775Z,100615.09
2023-03-29T23:38:46.879Z,100613.66
2023-03-29T23:41:51.751Z,100604.03
2023-03-29T23:44:56.128Z,100597.25
2023-03-29T23:48:01.433Z,100596.25
2023-03-29T23:51:08.120Z,100598.22
2023-03-29T23:54:12.875Z,100584.13
2023-03-29T23:57:17.314Z,100582.22
